createdAt,value
2024-03-03T00:01:22.743Z,29.46
2024-03-03T00:06:25.609Z,29.59
2024-03-03T00:11:29.905Z,29.60
2024-03-03T00:16:33.211Z,29.79
2024-03-03T00:21:36.239Z,29.81
2024-03-03T00:26:40.490Z,29.73
2024-03-03T00:31:45.202Z,29.73
2024-03-03T00:36:48.114Z,29.80
2024-03-03T00:41:52.384Z,29.65
2024-03-03T00:46:55.267Z,29.60
2024-03-03T00:51:58.216Z,29.92
2024-03-03T00:57:05.057Z,29.59
2024-03-03T01:02:08.022Z,29.67
2024-03-03T01:07:10.978Z,29.52
2024-03-03T01:12:15.379Z,29.66
2024-03-03T01:17:18.417Z,29.70
2024-03-03T01:22:22.411Z,29.83
2024-03-03T01:27:27.153Z,29.74
2024-03-03T01:32:30.983Z,29.72
2024-03-03T01:37:33.920Z,29.77
2024-03-03T01:42:38.202Z,29.76
2024-03-03T01:47:41.096Z,29.81
2024-03-03T01:52:44.890Z,29.71
2024-03-03T01:57:49.817Z,29.93
2024-03-03T02:02:52.731Z,29.85
2024-03-03T02:07:56.312Z,29.76
2024-03-03T02:13:00.674Z,29.91
2024-03-03T02:18:03.603Z,29.92
2024-03-03T02:23:08.064Z,29.79
2024-03-03T02:28:11.665Z,29.70
2024-03-03T02:33:15.294Z,30.06
2024-03-03T02:38:19.581Z,29.78
2024-03-03T02:43:22.864Z,30.03
2024-03-03T02:48:25.824Z,29.81
2024-03-03T02:53:30.036Z,29.86
2024-03-03T02:58:33.262Z,29.93
2024-03-03T03:03:36.277Z,29.93
2024-03-03T03:08:40.522Z,29.82
2024-03-03T03:13:44.528Z,29.78
2024-03-03T03:18:47.579Z,29.85
2024-03-03T03:23:51.909Z,29.78
2024-03-03T03:28:54.812Z,29.75
2024-03-03T03:33:57.757Z,29.83
2024-03-03T03:39:02.711Z,29.77
2024-03-03T03:44:05.763Z,30.01
2024-03-03T03:49:10.520Z,29.86
2024-03-03T03:54:14.767Z,29.81
2024-03-03T03:59:17.659Z,29.65
2024-03-03T04:04:20.647Z,29.55
2024-03-03T04:09:24.882Z,29.57
2024-03-03T04:14:27.855Z,29.64
2024-03-03T04:19:30.758Z,29.62
2024-03-03T04:24:35.072Z,29.69
2024-03-03T04:29:38.448Z,29.63
2024-03-03T04:34:41.590Z,29.99
2024-03-03T04:39:45.841Z,29.96
2024-03-03T04:44:48.793Z,29.85
2024-03-03T04:49:52.131Z,29.87
2024-03-03T04:54:56.458Z,29.68
2024-03-03T04:59:59.389Z,29.62
2024-03-03T05:05:02.824Z,29.53
2024-03-03T05:10:08.952Z,29.59
2024-03-03T05:15:11.885Z,29.68
2024-03-03T05:20:14.822Z,29.81
2024-03-03T05:25:19.247Z,29.83
2024-03-03T05:30:22.295Z,29.77
2024-03-03T05:35:25.209Z,29.62
2024-03-03T05:40:30.050Z,29.87
2024-03-03T05:45:33.465Z,29.70
2024-03-03T05:50:36.321Z,29.54
2024-03-03T05:55:40.517Z,29.71
2024-03-03T06:00:43.446Z,29.52
2024-03-03T06:05:46.320Z,29.88
2024-03-03T06:10:50.589Z,29.76
2024-03-03T06:15:53.900Z,29.86
2024-03-03T06:20:57.082Z,29.56
2024-03-03T06:26:01.329Z,29.77
2024-03-03T06:31:04.289Z,29.61
2024-03-03T06:36:07.601Z,29.75
2024-03-03T06:41:11.879Z,29.61
2024-03-03T06:46:14.945Z,29.68
2024-03-03T06:51:17.889Z,29.74
2024-03-03T06:56:22.110Z,29.61
2024-03-03T07:01:25.084Z,29.71
2024-03-03T07:06:28.022Z,29.67
2024-03-03T07:11:32.330Z,29.64
2024-03-03T07:16:35.372Z,29.86
2024-03-03T07:21:38.801Z,29.84
2024-03-03T07:26:43.153Z,29.59
2024-03-03T07:31:46.084Z,29.70
2024-03-03T07:36:48.995Z,29.78
2024-03-03T07:41:53.289Z,29.83
2024-03-03T07:46:56.219Z,29.66
2024-03-03T07:51:59.144Z,29.71
2024-03-03T07:57:03.389Z,29.63
2024-03-03T08:02:06.323Z,29.56
2024-03-03T08:07:09.325Z,29.59
2024-03-03T08:12:13.648Z,29.75
2024-03-03T08:17:16.764Z,29.70
2024-03-03T08:22:19.794Z,29.83
2024-03-03T08:27:24.135Z,29.63
2024-03-03T08:32:27.057Z,29.83
2024-03-03T08:37:30.548Z,29.68
2024-03-03T08:42:35.708Z,29.67
2024-03-03T08:47:38.626Z,29.54
2024-03-03T08:52:41.560Z,29.51
2024-03-03T08:57:46.281Z,29.70
2024-03-03T09:02:49.188Z,29.26
2024-03-03T09:07:52.069Z,29.35
2024-03-03T09:12:56.311Z,29.36
2024-03-03T09:17:59.218Z,29.36
2024-03-03T09:23:02.149Z,29.38
2024-03-03T09:28:08.139Z,29.39
2024-03-03T09:33:12.214Z,29.31
2024-03-03T09:38:15.444Z,29.20
2024-03-03T09:43:20.316Z,29.10
2024-03-03T09:48:24.294Z,29.05
2024-03-03T09:53:27.870Z,29.15
2024-03-03T09:58:32.161Z,29.08
2024-03-03T10:03:35.200Z,28.88
2024-03-03T10:08:42.684Z,29.16
2024-03-03T10:13:47.439Z,28.87
2024-03-03T10:19:00.877Z,29.23
2024-03-03T10:24:23.453Z,28.88
2024-03-03T10:29:30.391Z,29.14
2024-03-03T10:34:34.828Z,28.93
2024-03-03T10:39:39.596Z,28.95
2024-03-03T10:44:44.678Z,29.10
2024-03-03T10:49:48.181Z,28.76
2024-03-03T10:54:51.779Z,28.92
2024-03-03T10:59:56.608Z,28.95
2024-03-03T11:04:59.565Z,28.86
2024-03-03T11:10:02.521Z,28.88
2024-03-03T11:15:08.597Z,29.06
2024-03-03T11:20:16.602Z,28.83
2024-03-03T11:25:23.497Z,28.95
2024-03-03T11:30:28.570Z,28.97
2024-03-03T11:35:32.306Z,28.96
2024-03-03T11:40:35.295Z,28.86
2024-03-03T11:45:47.112Z,28.93
2024-03-03T11:50:50.054Z,28.84
2024-03-03T11:55:56.760Z,28.83
2024-03-03T12:01:11.261Z,28.98
2024-03-03T12:06:15.865Z,29.12
2024-03-03T12:11:18.825Z,28.79
2024-03-03T12:16:23.154Z,28.75
2024-03-03T12:21:26.403Z,28.81
2024-03-03T12:26:29.268Z,29.14
2024-03-03T12:31:33.775Z,28.82
2024-03-03T12:36:36.697Z,28.98
2024-03-03T12:41:39.943Z,28.65
2024-03-03T12:46:44.338Z,28.78
2024-03-03T12:51:50.668Z,28.71
2024-03-03T12:56:53.806Z,28.71
2024-03-03T13:01:58.248Z,29.18
2024-03-03T13:07:03.094Z,28.92
2024-03-03T13:12:07.807Z,29.04
2024-03-03T13:17:13.280Z,29.16
2024-03-03T13:22:18.718Z,29.33
2024-03-03T13:27:21.976Z,29.07
2024-03-03T13:32:26.201Z,29.00
2024-03-03T13:37:29.191Z,29.58
2024-03-03T13:42:32.143Z,29.28
2024-03-03T13:47:36.385Z,29.47
2024-03-03T13:52:39.498Z,29.48
2024-03-03T13:57:42.495Z,29.34
2024-03-03T14:02:46.708Z,29.46
2024-03-03T14:07:50.988Z,29.36
2024-03-03T14:12:54.125Z,29.54
2024-03-03T14:17:58.860Z,29.15
2024-03-03T14:23:02.218Z,29.48
2024-03-03T14:28:12.728Z,29.49
2024-03-03T14:33:18.194Z,29.29
2024-03-03T14:38:21.184Z,29.44
2024-03-03T14:43:24.285Z,29.41
2024-03-03T14:48:28.606Z,29.22
2024-03-03T14:53:34.967Z,29.29
2024-03-03T14:58:37.900Z,29.31
2024-03-03T15:03:42.239Z,29.30
2024-03-03T15:08:46.057Z,29.44
2024-03-03T15:13:49.237Z,29.22
2024-03-03T15:18:54.329Z,29.55
2024-03-03T15:23:57.294Z,29.45
2024-03-03T15:29:00.285Z,29.50
2024-03-03T15:34:04.963Z,29.39
2024-03-03T15:39:07.879Z,29.64
2024-03-03T15:44:10.747Z,29.63
2024-03-03T15:49:15.007Z,29.70
2024-03-03T15:54:17.922Z,29.66
2024-03-03T15:59:21.092Z,29.61
2024-03-03T16:04:25.359Z,29.53
2024-03-03T16:09:28.733Z,29.88
2024-03-03T16:14:33.389Z,29.60
2024-03-03T16:19:37.704Z,29.56
2024-03-03T16:24:41.526Z,29.77
2024-03-03T16:29:44.435Z,29.75
2024-03-03T16:34:48.685Z,29.54
2024-03-03T16:39:52.428Z,29.75
2024-03-03T16:44:58.127Z,29.67
2024-03-03T16:50:02.399Z,29.62
2024-03-03T16:55:06.585Z,29.65
2024-03-03T17:00:12.844Z,29.72
2024-03-03T17:05:17.822Z,29.76
2024-03-03T17:10:20.775Z,29.72
2024-03-03T17:15:24.212Z,29.74
2024-03-03T17:20:28.494Z,29.84
2024-03-03T17:25:32.660Z,29.95
2024-03-03T17:30:35.966Z,29.98
2024-03-03T17:35:40.281Z,29.91
2024-03-03T17:40:43.176Z,30.00
2024-03-03T17:45:46.198Z,29.83
2024-03-03T17:50:50.448Z,29.96
2024-03-03T17:55:53.322Z,29.95
2024-03-03T18:00:56.736Z,30.14
2024-03-03T18:06:01.047Z,29.89
2024-03-03T18:11:04.023Z,30.13
2024-03-03T18:16:08.277Z,29.80
2024-03-03T18:21:13.214Z,30.14
2024-03-03T18:26:16.301Z,29.90
2024-03-03T18:31:19.281Z,30.05
2024-03-03T18:36:23.534Z,29.99
2024-03-03T18:41:26.477Z,30.09
2024-03-03T18:46:29.916Z,30.13
2024-03-03T18:51:34.524Z,29.92
2024-03-03T18:56:37.419Z,29.92
2024-03-03T19:01:40.473Z,30.03
2024-03-03T19:06:44.788Z,30.06
2024-03-03T19:11:47.783Z,29.91
2024-03-03T19:16:50.654Z,29.81
2024-03-03T19:21:54.921Z,29.96
2024-03-03T19:26:57.820Z,30.05
2024-03-03T19:32:00.825Z,29.91
2024-03-03T19:37:05.387Z,30.05
2024-03-03T19:42:08.682Z,29.92
2024-03-03T19:47:11.537Z,29.83
2024-03-03T19:52:16.004Z,29.77
2024-03-03T19:57:18.956Z,29.91
2024-03-03T20:02:21.887Z,29.97
2024-03-03T20:07:26.313Z,29.91
2024-03-03T20:12:29.268Z,29.73
2024-03-03T20:17:32.233Z,29.81
2024-03-03T20:22:36.497Z,29.76
2024-03-03T20:27:39.433Z,29.79
2024-03-03T20:32:42.510Z,29.72
2024-03-03T20:37:46.847Z,29.80
2024-03-03T20:42:50.224Z,29.76
2024-03-03T20:47:53.168Z,29.75
2024-03-03T20:52:57.422Z,29.85
2024-03-03T20:58:00.433Z,29.88
2024-03-03T21:03:03.800Z,29.76
2024-03-03T21:08:10.522Z,29.74
2024-03-03T21:13:13.391Z,29.70
2024-03-03T21:18:16.371Z,29.69
2024-03-03T21:23:20.684Z,29.59
2024-03-03T21:28:26.930Z,29.61
2024-03-03T21:33:29.809Z,29.57
2024-03-03T21:38:34.052Z,29.63
2024-03-03T21:43:37.744Z,29.58
2024-03-03T21:48:40.664Z,29.63
2024-03-03T21:53:45.255Z,29.47
2024-03-03T21:58:48.408Z,29.51
2024-03-03T22:03:53.134Z,29.42
2024-03-03T22:08:58.232Z,29.39
2024-03-03T22:14:02.001Z,29.44
2024-03-03T22:19:05.028Z,29.60
2024-03-03T22:24:09.661Z,29.38
2024-03-03T22:29:12.772Z,29.30
2024-03-03T22:34:15.722Z,29.42
2024-03-03T22:39:20.013Z,29.39
2024-03-03T22:44:22.934Z,29.39
2024-03-03T22:49:25.822Z,29.20
2024-03-03T22:54:30.041Z,29.40
2024-03-03T22:59:32.893Z,29.14
2024-03-03T23:04:35.975Z,29.24
2024-03-03T23:09:40.270Z,29.21
2024-03-03T23:14:43.184Z,29.20
2024-03-03T23:19:46.106Z,29.22
2024-03-03T23:24:50.348Z,29.21
2024-03-03T23:29:54.437Z,29.17
2024-03-03T23:34:57.281Z,29.26
2024-03-03T23:40:01.530Z,29.06
2024-03-03T23:45:04.861Z,29.14
2024-03-03T23:50:08.911Z,29.04
2024-03-03T23:55:13.367Z,29.18
